P52 weather

Cottonwood Airport
Cottonwood, Arizona, United States

Public forecast

Using degrees Fahrenheit for public forecast. Weather courtesy of forecast.io.

Closest aviation weather report (METAR) to Cottonwood Airport

Closest report is Sedona Airport, 14.1 nm (26.1 km) ENE. Retrieved 2020/07/09 11:35 UTC (7 minutes ago):

KSEZ 091135Z AUTO 01003KT 10SM CLR 22/00 A3006 RMK AO2

Closest aviation forecast (TAF) to Cottonwood Airport

Forecast is more than 6 hours old.

Closest forecast is Sedona Airport, 14.1 nm (26.1 km) ENE. Retrieved 2020-07-09 00:54 UTC (11 hours ago):

TAF KSEZ 082352Z 0900/0924 20014G24KT P6SM SKC FM090300 20007KT P6SM SKC FM091800 22012G20KT P6SM SKC